Time;durP1;ratioP1;P1;durP2;ratioP2;P2;SDS_P1;SDS_P2;PMS_P1;PMS_P2;Temp;Humidity;BMP_temperature;BMP_pressure;BME280_temperature;BME280_humidity;BME280_pressure;Samples;Min_cycle;Max_cycle;Signal;HPM_P1;HPM_P2
2023/06/03 00:01:27;;;;;;;11.05;6.90;;;;;;;;;;5052772;28;20053;-53
2023/06/03 00:03:55;;;;;;;10.32;6.95;;;;;;;;;;5038516;28;20046;-52
2023/06/03 00:06:22;;;;;;;10.85;6.88;;;;;;;;;;5033056;28;20062;-55
2023/06/03 00:08:49;;;;;;;9.60;6.30;;;;;;;;;;5041297;28;20065;-54
2023/06/03 00:11:15;;;;;;;9.15;6.32;;;;;;;;;;5052405;28;20053;-56
2023/06/03 00:13:42;;;;;;;9.73;6.85;;;;;;;;;;5053036;28;20057;-54
2023/06/03 00:16:09;;;;;;;8.52;6.20;;;;;;;;;;5053567;28;20095;-56
2023/06/03 00:18:36;;;;;;;11.32;6.95;;;;;;;;;;5052761;28;20053;-56
2023/06/03 00:21:04;;;;;;;11.50;7.07;;;;;;;;;;5052511;28;20057;-53
2023/06/03 00:23:32;;;;;;;9.70;6.70;;;;;;;;;;5052657;28;20049;-53
2023/06/03 00:25:58;;;;;;;12.45;7.05;;;;;;;;;;5052763;28;20148;-51
2023/06/03 00:28:25;;;;;;;11.32;6.85;;;;;;;;;;5052371;28;20091;-53
2023/06/03 00:30:52;;;;;;;11.75;6.97;;;;;;;;;;5052375;28;20052;-52
2023/06/03 00:33:19;;;;;;;9.52;6.63;;;;;;;;;;5052367;28;20060;-50
2023/06/03 00:35:46;;;;;;;9.25;6.95;;;;;;;;;;5052585;28;20064;-51
2023/06/03 00:38:14;;;;;;;10.82;7.05;;;;;;;;;;5052583;28;20048;-52
2023/06/03 00:40:40;;;;;;;12.15;7.13;;;;;;;;;;5051772;28;20460;-52
2023/06/03 00:43:07;;;;;;;10.27;7.00;;;;;;;;;;5052441;28;20107;-52
2023/06/03 00:45:34;;;;;;;9.10;6.45;;;;;;;;;;5052228;28;20183;-53
2023/06/03 00:48:01;;;;;;;11.25;6.75;;;;;;;;;;5052446;28;20049;-57
2023/06/03 00:50:28;;;;;;;9.07;6.50;;;;;;;;;;5051917;28;20106;-56
2023/06/03 00:52:55;;;;;;;10.52;6.68;;;;;;;;;;5052297;28;20078;-53
2023/06/03 00:55:23;;;;;;;11.02;7.07;;;;;;;;;;5052182;28;20048;-52
2023/06/03 00:57:51;;;;;;;9.45;6.63;;;;;;;;;;5052351;28;20110;-55
2023/06/03 01:00:18;;;;;;;9.57;6.20;;;;;;;;;;5051958;28;20506;-56
2023/06/03 01:02:46;;;;;;;11.57;7.00;;;;;;;;;;5046253;28;20056;-51
2023/06/03 01:05:13;;;;;;;11.68;6.95;;;;;;;;;;5032365;28;20055;-57
2023/06/03 01:07:56;;;;;;;8.52;6.40;;;;;;;;;;5032677;28;20107;-56
2023/06/03 01:10:28;;;;;;;8.93;6.22;;;;;;;;;;5051644;28;20091;-55
2023/06/03 01:13:01;;;;;;;11.45;6.60;;;;;;;;;;5050722;28;20045;-54
2023/06/03 01:15:29;;;;;;;9.63;6.35;;;;;;;;;;5052339;28;20136;-55
2023/06/03 01:18:01;;;;;;;9.85;6.45;;;;;;;;;;5052101;28;20444;-57
2023/06/03 01:20:28;;;;;;;10.75;6.47;;;;;;;;;;5051946;28;20103;-51
2023/06/03 01:23:04;;;;;;;10.73;7.03;;;;;;;;;;5052171;28;20049;-53
2023/06/03 01:25:32;;;;;;;9.27;6.07;;;;;;;;;;5051801;28;20117;-53
2023/06/03 01:27:59;;;;;;;9.70;6.60;;;;;;;;;;5051659;28;20041;-50
2023/06/03 01:30:25;;;;;;;11.57;6.47;;;;;;;;;;5051491;28;20049;-56
2023/06/03 01:32:53;;;;;;;10.45;6.50;;;;;;;;;;5051362;28;20049;-55
2023/06/03 01:35:20;;;;;;;13.13;6.75;;;;;;;;;;5051833;28;20049;-56
2023/06/03 01:37:47;;;;;;;10.18;6.25;;;;;;;;;;5051689;28;20416;-54
2023/06/03 01:40:15;;;;;;;10.18;7.05;;;;;;;;;;5051040;28;20115;-52
2023/06/03 01:42:43;;;;;;;10.25;6.60;;;;;;;;;;5051367;28;20049;-51
2023/06/03 01:45:11;;;;;;;9.13;6.68;;;;;;;;;;5051587;28;20052;-56
2023/06/03 01:47:37;;;;;;;9.15;5.78;;;;;;;;;;5051402;28;20052;-54
2023/06/03 01:50:05;;;;;;;8.57;6.15;;;;;;;;;;5051197;28;20049;-51
2023/06/03 01:52:32;;;;;;;9.93;6.28;;;;;;;;;;5051219;28;20053;-50
2023/06/03 01:54:59;;;;;;;11.23;6.97;;;;;;;;;;5051285;28;20057;-51
2023/06/03 01:57:26;;;;;;;10.38;5.97;;;;;;;;;;5050974;28;20049;-51
2023/06/03 01:59:55;;;;;;;9.65;6.55;;;;;;;;;;5051140;28;20417;-54
2023/06/03 02:02:22;;;;;;;8.70;6.25;;;;;;;;;;5048655;28;20413;-54
2023/06/03 02:04:49;;;;;;;9.13;6.20;;;;;;;;;;5031531;28;20057;-55
2023/06/03 02:07:16;;;;;;;9.18;6.32;;;;;;;;;;5031137;28;20547;-51
2023/06/03 02:09:43;;;;;;;10.77;5.93;;;;;;;;;;5050504;28;20099;-51
2023/06/03 02:12:10;;;;;;;8.85;5.72;;;;;;;;;;5051012;28;20049;-55
2023/06/03 02:14:38;;;;;;;10.32;6.53;;;;;;;;;;5051220;28;20053;-54
2023/06/03 02:17:07;;;;;;;12.55;6.40;;;;;;;;;;5050815;28;20348;-51
2023/06/03 02:19:34;;;;;;;10.13;6.38;;;;;;;;;;5050599;28;20116;-56
2023/06/03 02:22:01;;;;;;;11.27;6.15;;;;;;;;;;5050021;28;20053;-54
2023/06/03 02:24:31;;;;;;;7.90;5.82;;;;;;;;;;5054813;28;20060;-55
2023/06/03 02:27:01;;;;;;;10.90;6.70;;;;;;;;;;5055023;28;20053;-55
2023/06/03 02:29:29;;;;;;;9.88;5.75;;;;;;;;;;5055146;28;20501;-55
2023/06/03 02:31:56;;;;;;;9.88;6.25;;;;;;;;;;5054814;28;20052;-55
2023/06/03 02:34:24;;;;;;;10.90;6.18;;;;;;;;;;5054554;28;20045;-53
2023/06/03 02:36:52;;;;;;;9.52;5.65;;;;;;;;;;5055143;28;20363;-51
2023/06/03 02:39:19;;;;;;;9.10;6.20;;;;;;;;;;5054535;28;20055;-57
2023/06/03 02:41:48;;;;;;;9.70;6.43;;;;;;;;;;5054664;28;20049;-53
2023/06/03 02:44:15;;;;;;;9.38;5.72;;;;;;;;;;5055037;28;20081;-51
2023/06/03 02:46:42;;;;;;;8.27;6.07;;;;;;;;;;5054588;28;20103;-51
2023/06/03 02:49:10;;;;;;;10.57;6.30;;;;;;;;;;5054432;28;20592;-52
2023/06/03 02:51:39;;;;;;;9.07;5.50;;;;;;;;;;5054522;28;20055;-54
2023/06/03 02:54:07;;;;;;;9.65;6.13;;;;;;;;;;5054400;28;20053;-53
2023/06/03 02:56:33;;;;;;;10.23;6.55;;;;;;;;;;5054571;28;20094;-56
2023/06/03 02:59:00;;;;;;;9.50;5.85;;;;;;;;;;5054148;28;20049;-54
2023/06/03 03:01:28;;;;;;;8.00;5.60;;;;;;;;;;5053916;28;20053;-50
2023/06/03 03:03:55;;;;;;;9.60;5.95;;;;;;;;;;5039246;28;20086;-52
2023/06/03 03:06:24;;;;;;;9.07;6.00;;;;;;;;;;5044883;28;20379;-54
2023/06/03 03:08:53;;;;;;;9.50;5.70;;;;;;;;;;5054148;28;20059;-50
2023/06/03 03:11:20;;;;;;;8.02;5.68;;;;;;;;;;5053940;28;20308;-52
2023/06/03 03:13:48;;;;;;;7.75;5.35;;;;;;;;;;5054937;28;20084;-53
2023/06/03 03:16:17;;;;;;;8.98;5.95;;;;;;;;;;5054084;28;20051;-54
2023/06/03 03:18:44;;;;;;;7.68;5.57;;;;;;;;;;5054090;28;20249;-51
2023/06/03 03:21:11;;;;;;;8.85;6.22;;;;;;;;;;5053887;28;20041;-56
2023/06/03 03:23:37;;;;;;;9.13;5.93;;;;;;;;;;5054140;28;20170;-57
2023/06/03 03:26:07;;;;;;;8.48;5.32;;;;;;;;;;5054063;28;20045;-57
2023/06/03 03:28:34;;;;;;;9.48;6.38;;;;;;;;;;5053471;28;20049;-56
2023/06/03 03:31:01;;;;;;;10.32;5.43;;;;;;;;;;5053808;28;20083;-54
2023/06/03 03:33:28;;;;;;;7.45;5.28;;;;;;;;;;5054055;28;20506;-53
2023/06/03 03:35:55;;;;;;;8.82;5.20;;;;;;;;;;5053201;28;20461;-53
2023/06/03 03:38:22;;;;;;;8.65;5.05;;;;;;;;;;5053752;28;20057;-53
2023/06/03 03:40:49;;;;;;;7.85;5.60;;;;;;;;;;5053546;28;20045;-53
2023/06/03 03:43:19;;;;;;;9.15;5.10;;;;;;;;;;5053142;28;20112;-52
2023/06/03 03:45:46;;;;;;;;;;;;;;;;;;5054419;28;20190;-54
2023/06/03 03:48:14;;;;;;;10.95;6.15;;;;;;;;;;5053187;28;19964;-53
2023/06/03 03:50:45;;;;;;;8.93;5.35;;;;;;;;;;5053251;28;20045;-55
2023/06/03 03:53:13;;;;;;;10.65;6.13;;;;;;;;;;5053103;28;20049;-53
2023/06/03 03:55:42;;;;;;;8.23;5.75;;;;;;;;;;5053314;28;20130;-53
2023/06/03 03:58:23;;;;;;;11.80;6.00;;;;;;;;;;5053172;28;20060;-56
2023/06/03 04:00:50;;;;;;;11.50;6.03;;;;;;;;;;5053141;28;20055;-58
2023/06/03 04:03:17;;;;;;;9.75;6.13;;;;;;;;;;5043711;28;20088;-55
2023/06/03 04:05:45;;;;;;;10.10;5.57;;;;;;;;;;5033455;28;20558;-51
2023/06/03 04:08:16;;;;;;;10.07;5.82;;;;;;;;;;5048315;28;20131;-54
2023/06/03 04:10:43;;;;;;;9.20;5.50;;;;;;;;;;5052816;28;20367;-53
2023/06/03 04:13:10;;;;;;;7.97;5.22;;;;;;;;;;5052822;28;20335;-55
2023/06/03 04:15:39;;;;;;;10.02;5.68;;;;;;;;;;5053141;28;20045;-54
2023/06/03 04:18:06;;;;;;;7.40;5.05;;;;;;;;;;5052933;28;20497;-51
2023/06/03 04:20:43;;;;;;;9.32;5.72;;;;;;;;;;5052842;28;20506;-52
2023/06/03 04:23:14;;;;;;;8.18;5.60;;;;;;;;;;5032985;28;20045;-51
2023/06/03 04:25:43;;;;;;;10.35;5.63;;;;;;;;;;5032942;28;20041;-53
2023/06/03 04:28:10;;;;;;;10.80;5.82;;;;;;;;;;5033101;28;20057;-52
2023/06/03 04:30:39;;;;;;;8.90;5.18;;;;;;;;;;5032603;28;20495;-55
2023/06/03 04:33:06;;;;;;;8.68;6.05;;;;;;;;;;5032713;28;20045;-54
2023/06/03 04:35:33;;;;;;;10.73;5.80;;;;;;;;;;5032774;28;20132;-51
2023/06/03 04:38:00;;;;;;;9.05;5.80;;;;;;;;;;5049306;28;20118;-57
2023/06/03 04:40:27;;;;;;;9.13;5.45;;;;;;;;;;5052269;28;20572;-57
2023/06/03 04:42:55;;;;;;;10.65;5.35;;;;;;;;;;5052568;28;20136;-52
2023/06/03 04:45:23;;;;;;;9.23;5.50;;;;;;;;;;5052138;28;20154;-55
2023/06/03 04:47:58;;;;;;;8.05;5.25;;;;;;;;;;5052579;28;20416;-54
2023/06/03 04:50:27;;;;;;;9.38;5.35;;;;;;;;;;5052181;28;20099;-51
2023/06/03 04:52:56;;;;;;;10.10;5.25;;;;;;;;;;5052402;28;20261;-55
2023/06/03 04:55:25;;;;;;;9.63;5.88;;;;;;;;;;5052251;28;20064;-51
2023/06/03 04:57:53;;;;;;;6.55;5.20;;;;;;;;;;5051359;28;20099;-55
2023/06/03 05:00:21;;;;;;;11.63;6.13;;;;;;;;;;5052122;28;20486;-55
2023/06/03 05:02:54;;;;;;;9.25;5.90;;;;;;;;;;5046621;28;20099;-54
2023/06/03 05:05:24;;;;;;;10.43;5.60;;;;;;;;;;5032500;28;20057;-54
2023/06/03 05:07:51;;;;;;;15.25;7.03;;;;;;;;;;5032463;28;20052;-57
2023/06/03 05:10:18;;;;;;;8.35;5.40;;;;;;;;;;5032300;28;20126;-59
2023/06/03 05:12:45;;;;;;;8.85;5.97;;;;;;;;;;5036825;28;20392;-52
2023/06/03 05:15:12;;;;;;;9.32;6.10;;;;;;;;;;5032202;28;20041;-56
2023/06/03 05:17:39;;;;;;;7.93;5.75;;;;;;;;;;5051847;22;20053;-78
2023/06/03 05:20:07;;;;;;;9.35;5.47;;;;;;;;;;5033459;28;20463;-77
2023/06/03 05:22:35;;;;;;;8.70;5.45;;;;;;;;;;5034892;28;20496;-75
2023/06/03 05:25:03;;;;;;;9.10;5.65;;;;;;;;;;5032807;28;20045;-77
2023/06/03 05:27:30;;;;;;;7.93;5.80;;;;;;;;;;5032847;28;20048;-76
2023/06/03 05:29:56;;;;;;;9.68;5.50;;;;;;;;;;5032200;28;20049;-76
2023/06/03 05:32:23;;;;;;;9.75;5.80;;;;;;;;;;5036827;28;20037;-77
2023/06/03 05:34:50;;;;;;;9.18;5.82;;;;;;;;;;5039089;28;20080;-78
2023/06/03 05:37:16;;;;;;;12.18;5.85;;;;;;;;;;5039433;28;20510;-77
2023/06/03 05:39:45;;;;;;;11.15;5.75;;;;;;;;;;5038886;28;20056;-77
2023/06/03 05:42:11;;;;;;;8.50;6.18;;;;;;;;;;5037958;28;20132;-77
2023/06/03 05:44:38;;;;;;;10.27;6.38;;;;;;;;;;5035385;28;20111;-78
2023/06/03 05:47:05;;;;;;;10.73;6.38;;;;;;;;;;5035577;28;20136;-78
2023/06/03 05:49:31;;;;;;;11.90;6.47;;;;;;;;;;5035724;28;20045;-78
2023/06/03 05:51:58;;;;;;;9.25;5.80;;;;;;;;;;5035391;28;20123;-78
2023/06/03 05:54:28;;;;;;;9.75;5.85;;;;;;;;;;5037782;28;20076;-78
2023/06/03 05:56:56;;;;;;;8.07;5.88;;;;;;;;;;5036229;28;20053;-79
2023/06/03 05:59:25;;;;;;;10.13;6.30;;;;;;;;;;5035814;28;20140;-78
2023/06/03 06:01:52;;;;;;;9.52;6.32;;;;;;;;;;5036131;28;20041;-77
2023/06/03 06:04:19;;;;;;;11.02;6.70;;;;;;;;;;5036439;28;20072;-79
2023/06/03 06:06:45;;;;;;;10.05;5.95;;;;;;;;;;5036335;28;20128;-79
2023/06/03 06:09:12;;;;;;;11.48;6.50;;;;;;;;;;5035676;28;20072;-78
2023/06/03 06:11:39;;;;;;;8.20;6.00;;;;;;;;;;5035431;28;20120;-78
2023/06/03 06:14:07;;;;;;;12.18;6.65;;;;;;;;;;5034614;28;20042;-78
2023/06/03 06:16:34;;;;;;;11.15;6.50;;;;;;;;;;5035145;28;20235;-79
2023/06/03 06:22:40;;;;;;;7.13;5.60;;;;;;;;;;5007396;28;20128;-80
2023/06/03 06:25:08;;;;;;;9.65;6.35;;;;;;;;;;5015711;28;20042;-79
2023/06/03 06:27:35;;;;;;;8.57;6.32;;;;;;;;;;5034452;28;20054;-77
2023/06/03 06:30:04;;;;;;;9.85;6.50;;;;;;;;;;5044305;28;20527;-80
2023/06/03 06:32:31;;;;;;;10.10;6.13;;;;;;;;;;5037784;28;20053;-80
2023/06/03 06:34:58;;;;;;;9.40;6.07;;;;;;;;;;5037275;28;20084;-79
2023/06/03 06:37:24;;;;;;;9.10;6.63;;;;;;;;;;5030928;28;20050;-77
2023/06/03 06:39:52;;;;;;;10.57;6.15;;;;;;;;;;5032149;28;20067;-78
2023/06/03 06:42:29;;;;;;;9.90;6.18;;;;;;;;;;5034654;28;20049;-78
2023/06/03 06:44:55;;;;;;;8.82;6.43;;;;;;;;;;5031735;28;20053;-79
2023/06/03 06:47:25;;;;;;;10.88;7.38;;;;;;;;;;5031874;28;20128;-80
2023/06/03 06:49:53;;;;;;;8.77;5.90;;;;;;;;;;5031554;28;20128;-79
2023/06/03 06:52:21;;;;;;;9.25;6.15;;;;;;;;;;5031843;28;20207;-79
2023/06/03 06:54:48;;;;;;;9.20;6.93;;;;;;;;;;5034318;28;20099;-78
2023/06/03 06:57:20;;;;;;;11.65;5.78;;;;;;;;;;5051629;28;20052;-79
2023/06/03 06:59:46;;;;;;;10.73;6.60;;;;;;;;;;5040973;28;20064;-79
2023/06/03 07:02:13;;;;;;;11.35;6.53;;;;;;;;;;5036997;28;20105;-78
2023/06/03 07:04:41;;;;;;;9.63;6.53;;;;;;;;;;5047740;28;20045;-77
2023/06/03 07:07:08;;;;;;;10.88;6.88;;;;;;;;;;5048057;28;20072;-77
2023/06/03 07:09:35;;;;;;;12.57;6.60;;;;;;;;;;5046867;28;20072;-79
2023/06/03 07:12:01;;;;;;;9.25;5.97;;;;;;;;;;5051230;28;20050;-79
2023/06/03 07:14:29;;;;;;;8.90;6.55;;;;;;;;;;5050561;28;20077;-78
2023/06/03 07:16:56;;;;;;;8.07;6.28;;;;;;;;;;5049918;28;20053;-79
2023/06/03 07:19:23;;;;;;;9.63;6.45;;;;;;;;;;5050216;28;20051;-78
2023/06/03 07:21:52;;;;;;;10.63;6.10;;;;;;;;;;5050294;28;20056;-78
2023/06/03 07:24:19;;;;;;;12.35;6.30;;;;;;;;;;5050728;28;20045;-76
2023/06/03 07:26:46;;;;;;;8.88;6.60;;;;;;;;;;5049776;28;20119;-77
2023/06/03 07:29:13;;;;;;;9.25;6.55;;;;;;;;;;5049650;28;20071;-78
2023/06/03 07:31:40;;;;;;;9.48;6.05;;;;;;;;;;5050336;28;20085;-77
2023/06/03 07:34:08;;;;;;;8.85;6.55;;;;;;;;;;5049684;28;20045;-77
2023/06/03 07:36:35;;;;;;;11.43;6.45;;;;;;;;;;5050376;28;20105;-78
2023/06/03 07:39:05;;;;;;;7.22;5.85;;;;;;;;;;5050222;28;20052;-77
2023/06/03 07:41:40;;;;;;;10.05;6.70;;;;;;;;;;5049138;28;20044;-77
2023/06/03 07:44:08;;;;;;;8.45;5.97;;;;;;;;;;5049673;28;20080;-80
2023/06/03 07:46:55;;;;;;;8.90;6.68;;;;;;;;;;5057680;28;20266;-75
2023/06/03 07:49:23;;;;;;;10.02;6.10;;;;;;;;;;5054440;28;20077;-77
2023/06/03 07:51:51;;;;;;;8.95;5.75;;;;;;;;;;5057733;28;20034;-77
2023/06/03 07:54:19;;;;;;;10.35;6.38;;;;;;;;;;5056855;28;20069;-77
2023/06/03 07:56:47;;;;;;;9.43;6.22;;;;;;;;;;5049573;28;20515;-78
2023/06/03 07:59:15;;;;;;;8.32;6.05;;;;;;;;;;5045961;28;20045;-82
2023/06/03 08:01:42;;;;;;;9.48;5.63;;;;;;;;;;5042996;28;20085;-78
2023/06/03 08:04:28;;;;;;;9.25;5.97;;;;;;;;;;5037327;28;20076;-78
2023/06/03 08:06:55;;;;;;;11.25;6.32;;;;;;;;;;5061126;28;20102;-78
2023/06/03 08:09:27;;;;;;;7.70;5.63;;;;;;;;;;5067164;28;20128;-77
2023/06/03 08:11:54;;;;;;;9.50;5.90;;;;;;;;;;5054836;28;20049;-79
2023/06/03 08:14:21;;;;;;;8.40;5.80;;;;;;;;;;5047300;28;20113;-77
2023/06/03 08:16:48;;;;;;;8.65;6.35;;;;;;;;;;5046050;28;20500;-78
2023/06/03 08:19:17;;;;;;;8.55;6.35;;;;;;;;;;5061110;28;20123;-77
2023/06/03 08:21:45;;;;;;;7.85;5.18;;;;;;;;;;5071857;28;20067;-78
2023/06/03 08:24:12;;;;;;;9.50;5.75;;;;;;;;;;5052786;28;20049;-78
2023/06/03 08:26:40;;;;;;;9.80;5.70;;;;;;;;;;5054145;28;20108;-77
2023/06/03 08:29:07;;;;;;;9.70;6.43;;;;;;;;;;5056690;28;20049;-77
2023/06/03 08:31:34;;;;;;;9.25;6.13;;;;;;;;;;5057051;28;20082;-77
2023/06/03 08:34:02;;;;;;;8.48;5.75;;;;;;;;;;5054154;28;20049;-78
2023/06/03 08:36:29;;;;;;;9.23;6.75;;;;;;;;;;5072031;28;20098;-77
2023/06/03 08:38:56;;;;;;;7.47;6.03;;;;;;;;;;5071755;28;20041;-78
2023/06/03 08:41:26;;;;;;;9.18;5.55;;;;;;;;;;5070812;28;20098;-78
2023/06/03 08:44:09;;;;;;;9.77;6.43;;;;;;;;;;5071802;28;20140;-79
2023/06/03 08:46:43;;;;;;;7.90;5.60;;;;;;;;;;5070818;28;20069;-78
2023/06/03 08:49:18;;;;;;;8.43;5.70;;;;;;;;;;5070388;28;20108;-78
2023/06/03 08:51:52;;;;;;;10.82;5.90;;;;;;;;;;5067618;28;20535;-79
2023/06/03 08:54:21;;;;;;;9.02;5.85;;;;;;;;;;5056364;28;20044;-78
2023/06/03 08:56:54;;;;;;;9.27;6.47;;;;;;;;;;5057834;28;20432;-78
2023/06/03 08:59:25;;;;;;;8.88;6.10;;;;;;;;;;5067741;28;20045;-76
2023/06/03 09:01:56;;;;;;;11.48;6.45;;;;;;;;;;5067545;28;20044;-78
2023/06/03 09:04:23;;;;;;;10.98;5.70;;;;;;;;;;5052028;28;20045;-77
2023/06/03 09:06:50;;;;;;;9.10;5.22;;;;;;;;;;5048962;28;20048;-76
2023/06/03 09:09:17;;;;;;;8.48;5.68;;;;;;;;;;5046752;28;20503;-79
2023/06/03 09:11:44;;;;;;;9.48;5.75;;;;;;;;;;5036076;28;20049;-77
2023/06/03 09:14:12;;;;;;;9.43;5.40;;;;;;;;;;5051147;28;20041;-76
2023/06/03 09:16:40;;;;;;;8.63;5.50;;;;;;;;;;5057794;28;20045;-77
2023/06/03 09:19:07;;;;;;;8.55;5.43;;;;;;;;;;5055820;28;20048;-77
2023/06/03 09:21:34;;;;;;;9.32;5.85;;;;;;;;;;5050266;28;20109;-77
2023/06/03 09:24:01;;;;;;;8.32;5.43;;;;;;;;;;5046936;28;20084;-77
2023/06/03 09:26:28;;;;;;;10.25;5.25;;;;;;;;;;5043574;28;20058;-77
2023/06/03 09:28:55;;;;;;;7.22;5.03;;;;;;;;;;5035990;28;20235;-76
2023/06/03 09:31:22;;;;;;;7.93;5.10;;;;;;;;;;5053756;28;20083;-76
2023/06/03 09:33:51;;;;;;;7.65;5.45;;;;;;;;;;5052433;28;20045;-77
2023/06/03 09:36:18;;;;;;;10.85;6.45;;;;;;;;;;5053141;28;20041;-76
2023/06/03 09:38:50;;;;;;;7.78;5.75;;;;;;;;;;5052469;28;20055;-76
2023/06/03 09:41:17;;;;;;;8.85;5.40;;;;;;;;;;5052483;28;20053;-76
2023/06/03 09:43:57;;;;;;;6.85;5.13;;;;;;;;;;5052316;28;20045;-76
2023/06/03 09:46:24;;;;;;;;;;;;;;;;;;5053206;28;20114;-76
2023/06/03 09:48:53;;;;;;;9.73;5.75;;;;;;;;;;5052960;28;20023;-75
2023/06/03 09:51:19;;;;;;;8.00;5.22;;;;;;;;;;5052302;28;20099;-75
2023/06/03 09:53:46;;;;;;;8.15;5.10;;;;;;;;;;5052840;28;20044;-77
2023/06/03 09:56:23;;;;;;;7.18;5.03;;;;;;;;;;5062854;28;20080;-77
2023/06/03 09:58:54;;;;;;;8.13;4.55;;;;;;;;;;5062031;28;20219;-77
2023/06/03 10:01:31;;;;;;;8.20;5.60;;;;;;;;;;5062008;28;20076;-77
2023/06/03 10:04:00;;;;;;;9.30;5.05;;;;;;;;;;5046952;28;20057;-77
2023/06/03 10:06:27;;;;;;;7.07;5.63;;;;;;;;;;5051436;28;20085;-77
2023/06/03 10:08:54;;;;;;;9.05;5.43;;;;;;;;;;5060227;28;20045;-76
2023/06/03 10:11:23;;;;;;;9.25;5.28;;;;;;;;;;5062675;28;20045;-77
2023/06/03 10:14:02;;;;;;;7.97;5.95;;;;;;;;;;5061965;28;20052;-77
2023/06/03 10:16:28;;;;;;;11.02;5.88;;;;;;;;;;5061077;28;20132;-78
2023/06/03 10:18:56;;;;;;;7.65;5.55;;;;;;;;;;5061599;28;20056;-77
2023/06/03 10:21:27;;;;;;;7.20;4.93;;;;;;;;;;5062646;28;20052;-78
2023/06/03 10:23:56;;;;;;;9.57;6.18;;;;;;;;;;5052588;28;20065;-78
2023/06/03 10:26:23;;;;;;;8.13;5.75;;;;;;;;;;5055292;28;20055;-78
2023/06/03 10:28:53;;;;;;;8.38;5.45;;;;;;;;;;5045428;28;20108;-77
2023/06/03 10:31:24;;;;;;;10.35;5.57;;;;;;;;;;5062906;28;20049;-76
2023/06/03 10:33:52;;;;;;;9.07;5.60;;;;;;;;;;5059415;28;20124;-77
2023/06/03 10:36:20;;;;;;;8.57;6.05;;;;;;;;;;5041282;28;20045;-78
2023/06/03 10:38:48;;;;;;;8.68;5.78;;;;;;;;;;5032442;28;20140;-77
2023/06/03 10:41:15;;;;;;;9.35;5.07;;;;;;;;;;5032224;28;20132;-77
2023/06/03 10:43:44;;;;;;;8.65;5.22;;;;;;;;;;5034690;28;20049;-78
2023/06/03 10:46:12;;;;;;;8.05;5.10;;;;;;;;;;5051897;28;20067;-77
2023/06/03 10:48:40;;;;;;;7.75;5.10;;;;;;;;;;5044472;28;20134;-77
2023/06/03 10:51:17;;;;;;;11.85;5.18;;;;;;;;;;5041843;28;20492;-77
2023/06/03 10:54:04;;;;;;;8.55;5.50;;;;;;;;;;5044192;28;20125;-78
2023/06/03 10:56:36;;;;;;;9.93;5.95;;;;;;;;;;5044456;28;20064;-77
2023/06/03 10:59:04;;;;;;;8.95;5.75;;;;;;;;;;5047699;28;20053;-77
2023/06/03 11:01:56;;;;;;;7.65;5.57;;;;;;;;;;5047981;28;20053;-78
2023/06/03 11:04:22;;;;;;;9.57;5.65;;;;;;;;;;5044815;28;20056;-78
2023/06/03 11:06:49;;;;;;;11.38;5.95;;;;;;;;;;5043460;28;20460;-77
2023/06/03 11:09:30;;;;;;;10.10;5.60;;;;;;;;;;5036604;28;20124;-77
2023/06/03 11:12:07;;;;;;;9.15;5.45;;;;;;;;;;5039390;28;20115;-76
2023/06/03 11:14:56;;;;;;;10.90;5.47;;;;;;;;;;5043753;28;20049;-77
2023/06/03 11:17:27;;;;;;;8.70;5.93;;;;;;;;;;5047546;28;20072;-78
2023/06/03 11:19:57;;;;;;;9.57;5.45;;;;;;;;;;5036527;28;20077;-76
2023/06/03 11:22:45;;;;;;;;;;;;;;;;;;5086623;22;20073;-55
2023/06/03 11:25:30;;;;;;;8.75;4.93;;;;;;;;;;5052593;28;20007;-57
2023/06/03 11:28:36;;;;;;;8.80;5.55;;;;;;;;;;5053289;28;20490;-49
2023/06/03 11:31:07;;;;;;;8.85;5.30;;;;;;;;;;5060257;28;20044;-55
2023/06/03 11:33:34;;;;;;;9.25;5.57;;;;;;;;;;5074769;28;20496;-53
2023/06/03 11:36:40;;;;;;;8.93;5.95;;;;;;;;;;5072480;28;20084;-52
2023/06/03 11:39:07;;;;;;;8.52;5.28;;;;;;;;;;5071236;28;20050;-55
2023/06/03 11:42:05;;;;;;;6.88;5.15;;;;;;;;;;5056617;28;20052;-52
2023/06/03 11:44:33;;;;;;;8.25;5.47;;;;;;;;;;5054145;28;20429;-51
2023/06/03 11:47:00;;;;;;;10.02;5.15;;;;;;;;;;5054825;28;20041;-51
2023/06/03 11:49:27;;;;;;;9.85;5.40;;;;;;;;;;5053881;28;20539;-57
2023/06/03 11:51:58;;;;;;;8.65;5.78;;;;;;;;;;5054055;28;20494;-55
2023/06/03 11:54:25;;;;;;;9.18;6.15;;;;;;;;;;5053542;28;20084;-53
2023/06/03 11:56:54;;;;;;;8.63;5.35;;;;;;;;;;5052871;28;20452;-53
2023/06/03 11:59:30;;;;;;;9.10;5.32;;;;;;;;;;5053304;28;20442;-57
2023/06/03 12:01:58;;;;;;;9.02;6.03;;;;;;;;;;5053496;28;20049;-55
2023/06/03 12:04:25;;;;;;;8.38;5.15;;;;;;;;;;5053475;28;20559;-55
2023/06/03 12:06:53;;;;;;;8.57;5.07;;;;;;;;;;5053499;28;20128;-54
2023/06/03 12:09:21;;;;;;;8.73;6.00;;;;;;;;;;5052780;28;20124;-56
2023/06/03 12:11:48;;;;;;;7.32;5.00;;;;;;;;;;5053445;28;20409;-56
2023/06/03 12:14:32;;;;;;;10.13;5.10;;;;;;;;;;5053039;28;20071;-54
2023/06/03 12:17:10;;;;;;;8.23;5.22;;;;;;;;;;5051448;28;20076;-54
2023/06/03 12:19:41;;;;;;;7.55;5.30;;;;;;;;;;5052978;28;20409;-50
2023/06/03 12:22:08;;;;;;;7.13;5.10;;;;;;;;;;5052887;28;20413;-55
2023/06/03 12:24:36;;;;;;;7.88;5.53;;;;;;;;;;5052966;28;20489;-55
2023/06/03 12:27:17;;;;;;;7.32;5.68;;;;;;;;;;5053048;28;20075;-52
2023/06/03 12:29:47;;;;;;;7.57;5.78;;;;;;;;;;5053021;28;20521;-55
2023/06/03 12:32:14;;;;;;;;;;;;;;;;;;5053201;28;20532;-59
2023/06/03 12:34:42;;;;;;;9.23;5.65;;;;;;;;;;5053145;28;20286;-52
2023/06/03 12:37:09;;;;;;;7.07;5.28;;;;;;;;;;5052891;28;20107;-56
2023/06/03 12:39:44;;;;;;;5.97;4.72;;;;;;;;;;5052439;28;20045;-54
2023/06/03 12:42:11;;;;;;;7.90;4.93;;;;;;;;;;5052730;28;20131;-58
2023/06/03 12:44:43;;;;;;;6.80;5.03;;;;;;;;;;5052158;28;20056;-54
2023/06/03 12:47:11;;;;;;;6.10;4.80;;;;;;;;;;5052572;28;20414;-52
2023/06/03 12:49:38;;;;;;;8.02;5.18;;;;;;;;;;5051993;28;20047;-53
2023/06/03 12:52:16;;;;;;;8.40;5.00;;;;;;;;;;5052497;28;20098;-57
2023/06/03 12:54:44;;;;;;;8.38;5.13;;;;;;;;;;5052233;28;20497;-55
2023/06/03 12:57:12;;;;;;;7.57;5.07;;;;;;;;;;5053096;28;20053;-54
2023/06/03 13:00:00;;;;;;;8.32;5.85;;;;;;;;;;5052206;28;20397;-56
2023/06/03 13:02:28;;;;;;;9.10;5.10;;;;;;;;;;5052269;28;20044;-53
2023/06/03 13:04:55;;;;;;;10.90;5.18;;;;;;;;;;5052156;28;20053;-54
2023/06/03 13:07:22;;;;;;;9.98;4.88;;;;;;;;;;5052162;28;20052;-52
2023/06/03 13:09:49;;;;;;;6.47;4.95;;;;;;;;;;5051937;28;20510;-51
2023/06/03 13:12:16;;;;;;;8.93;5.50;;;;;;;;;;5051924;28;20052;-52
2023/06/03 13:14:43;;;;;;;7.70;5.50;;;;;;;;;;5051930;28;20485;-54
2023/06/03 13:17:10;;;;;;;8.00;5.00;;;;;;;;;;5052246;28;20059;-53
2023/06/03 13:19:39;;;;;;;7.18;4.75;;;;;;;;;;5051936;28;20167;-50
2023/06/03 13:22:07;;;;;;;6.68;4.90;;;;;;;;;;5051450;28;20084;-55
2023/06/03 13:24:34;;;;;;;8.60;5.25;;;;;;;;;;5052254;28;20079;-57
2023/06/03 13:27:02;;;;;;;15.10;5.68;;;;;;;;;;5051981;28;20549;-52
2023/06/03 13:29:29;;;;;;;6.95;5.03;;;;;;;;;;5051471;28;20055;-53
2023/06/03 13:31:56;;;;;;;8.95;5.53;;;;;;;;;;5051618;28;20052;-53
2023/06/03 13:34:23;;;;;;;8.02;4.85;;;;;;;;;;5056136;28;20421;-56
2023/06/03 13:36:52;;;;;;;8.40;5.35;;;;;;;;;;5033920;28;20115;-57
2023/06/03 13:39:22;;;;;;;8.63;5.30;;;;;;;;;;5051390;28;20044;-57
2023/06/03 13:41:49;;;;;;;8.27;5.32;;;;;;;;;;5051447;28;20041;-57
2023/06/03 13:44:16;;;;;;;6.32;4.80;;;;;;;;;;5051499;28;20048;-56
2023/06/03 13:46:43;;;;;;;8.07;4.90;;;;;;;;;;5051517;28;20417;-57
2023/06/03 13:49:10;;;;;;;7.85;5.03;;;;;;;;;;5051109;28;20052;-55
2023/06/03 13:51:37;;;;;;;6.68;5.30;;;;;;;;;;5051352;28;20049;-57
2023/06/03 13:54:06;;;;;;;6.88;5.18;;;;;;;;;;5051363;28;20045;-54
2023/06/03 13:56:33;;;;;;;8.35;5.45;;;;;;;;;;5051305;28;20041;-57
2023/06/03 13:59:00;;;;;;;7.95;4.80;;;;;;;;;;5051137;28;20049;-55
2023/06/03 14:01:27;;;;;;;7.57;5.20;;;;;;;;;;5051452;28;20049;-55
2023/06/03 14:03:54;;;;;;;9.23;5.80;;;;;;;;;;5051075;28;20045;-54
2023/06/03 14:06:21;;;;;;;14.02;5.25;;;;;;;;;;5051184;28;20049;-56
2023/06/03 14:08:48;;;;;;;9.27;5.32;;;;;;;;;;5051034;28;20060;-55
2023/06/03 14:11:16;;;;;;;8.75;5.15;;;;;;;;;;5051153;28;20576;-56
2023/06/03 14:13:43;;;;;;;8.05;5.28;;;;;;;;;;5051223;28;20115;-54
2023/06/03 14:16:10;;;;;;;11.70;5.30;;;;;;;;;;5054735;28;20041;-53
2023/06/03 14:18:37;;;;;;;7.45;5.15;;;;;;;;;;5051426;28;20053;-56
2023/06/03 14:21:04;;;;;;;6.35;4.63;;;;;;;;;;5055149;28;20348;-56
2023/06/03 14:23:31;;;;;;;7.93;5.07;;;;;;;;;;5055618;28;20045;-54
2023/06/03 14:26:00;;;;;;;7.65;5.20;;;;;;;;;;5072190;28;20110;-56
2023/06/03 14:28:28;;;;;;;7.20;5.20;;;;;;;;;;5052948;28;20383;-57
2023/06/03 14:30:55;;;;;;;7.88;5.15;;;;;;;;;;5055006;28;20041;-63
2023/06/03 14:33:24;;;;;;;8.10;5.43;;;;;;;;;;5055145;28;20048;-56
2023/06/03 14:35:51;;;;;;;6.85;5.40;;;;;;;;;;5054842;28;20414;-56
2023/06/03 14:38:19;;;;;;;7.57;4.95;;;;;;;;;;5054972;28;20045;-51
2023/06/03 14:40:46;;;;;;;8.98;5.70;;;;;;;;;;5054816;28;20061;-54
2023/06/03 14:43:13;;;;;;;6.93;5.25;;;;;;;;;;5055109;28;20414;-55
2023/06/03 14:45:42;;;;;;;7.60;5.50;;;;;;;;;;5054744;28;20345;-52
2023/06/03 14:48:09;;;;;;;6.60;5.03;;;;;;;;;;5054819;28;20490;-56
2023/06/03 14:50:35;;;;;;;7.15;5.57;;;;;;;;;;5054325;28;20126;-56
2023/06/03 14:53:03;;;;;;;7.57;5.10;;;;;;;;;;5054827;28;20057;-57
2023/06/03 14:55:30;;;;;;;7.45;5.30;;;;;;;;;;5054595;28;20489;-57